sensor_id;sensor_type;location;lat;lon;timestamp;P1;durP1;ratioP1;P2;durP2;ratioP2
80586;SDS011;69943;20.850;106.728;2023-09-30T00:01:22;11.40;;;8.50;;
80586;SDS011;69943;20.850;106.728;2023-09-30T00:03:58;11.60;;;9.10;;
80586;SDS011;69943;20.850;106.728;2023-09-30T00:06:41;10.50;;;8.20;;
80586;SDS011;69943;20.850;106.728;2023-09-30T00:09:14;10.20;;;7.70;;
80586;SDS011;69943;20.850;106.728;2023-09-30T00:11:46;10.60;;;7.30;;
80586;SDS011;69943;20.850;106.728;2023-09-30T00:14:26;12.50;;;8.30;;
80586;SDS011;69943;20.850;106.728;2023-09-30T00:17:00;13.10;;;9.00;;
80586;SDS011;69943;20.850;106.728;2023-09-30T00:19:32;13.80;;;8.90;;
80586;SDS011;69943;20.850;106.728;2023-09-30T00:22:05;15.00;;;9.00;;
80586;SDS011;69943;20.850;106.728;2023-09-30T00:24:37;14.40;;;9.00;;
80586;SDS011;69943;20.850;106.728;2023-09-30T00:27:10;15.50;;;9.30;;
80586;SDS011;69943;20.850;106.728;2023-09-30T00:29:43;11.20;;;8.60;;
80586;SDS011;69943;20.850;106.728;2023-09-30T00:32:16;19.00;;;8.80;;
80586;SDS011;69943;20.850;106.728;2023-09-30T00:34:48;14.20;;;9.10;;
80586;SDS011;69943;20.850;106.728;2023-09-30T00:37:23;14.30;;;8.50;;
80586;SDS011;69943;20.850;106.728;2023-09-30T00:39:55;12.50;;;7.70;;
80586;SDS011;69943;20.850;106.728;2023-09-30T00:42:28;13.00;;;9.20;;
80586;SDS011;69943;20.850;106.728;2023-09-30T00:45:00;18.00;;;8.80;;
80586;SDS011;69943;20.850;106.728;2023-09-30T00:47:36;15.90;;;8.50;;
80586;SDS011;69943;20.850;106.728;2023-09-30T00:50:09;16.00;;;9.20;;
80586;SDS011;69943;20.850;106.728;2023-09-30T00:52:43;13.20;;;8.80;;
80586;SDS011;69943;20.850;106.728;2023-09-30T00:55:17;16.00;;;10.30;;
80586;SDS011;69943;20.850;106.728;2023-09-30T00:57:51;15.40;;;10.10;;
80586;SDS011;69943;20.850;106.728;2023-09-30T01:00:23;15.00;;;9.30;;
80586;SDS011;69943;20.850;106.728;2023-09-30T01:02:56;15.10;;;9.30;;
80586;SDS011;69943;20.850;106.728;2023-09-30T01:05:31;13.80;;;9.20;;
80586;SDS011;69943;20.850;106.728;2023-09-30T01:08:04;13.80;;;9.30;;
80586;SDS011;69943;20.850;106.728;2023-09-30T01:10:37;18.30;;;10.10;;
80586;SDS011;69943;20.850;106.728;2023-09-30T01:13:10;13.00;;;9.30;;
80586;SDS011;69943;20.850;106.728;2023-09-30T01:15:43;17.40;;;9.70;;
80586;SDS011;69943;20.850;106.728;2023-09-30T01:18:15;19.60;;;9.30;;
80586;SDS011;69943;20.850;106.728;2023-09-30T01:20:48;15.90;;;9.30;;
80586;SDS011;69943;20.850;106.728;2023-09-30T01:23:23;14.40;;;8.50;;
80586;SDS011;69943;20.850;106.728;2023-09-30T01:25:56;11.50;;;8.80;;
80586;SDS011;69943;20.850;106.728;2023-09-30T01:28:30;14.40;;;9.10;;
80586;SDS011;69943;20.850;106.728;2023-09-30T01:31:03;13.90;;;9.10;;
80586;SDS011;69943;20.850;106.728;2023-09-30T01:33:36;16.20;;;8.60;;
80586;SDS011;69943;20.850;106.728;2023-09-30T01:36:09;15.50;;;8.50;;
80586;SDS011;69943;20.850;106.728;2023-09-30T01:38:42;16.20;;;9.00;;
80586;SDS011;69943;20.850;106.728;2023-09-30T01:41:15;14.40;;;8.60;;
80586;SDS011;69943;20.850;106.728;2023-09-30T01:43:47;14.80;;;9.20;;
80586;SDS011;69943;20.850;106.728;2023-09-30T01:46:20;14.90;;;8.20;;
80586;SDS011;69943;20.850;106.728;2023-09-30T01:48:53;16.20;;;8.50;;
80586;SDS011;69943;20.850;106.728;2023-09-30T01:51:26;13.60;;;8.20;;
80586;SDS011;69943;20.850;106.728;2023-09-30T01:53:59;14.00;;;7.80;;
80586;SDS011;69943;20.850;106.728;2023-09-30T01:56:31;13.30;;;8.00;;
80586;SDS011;69943;20.850;106.728;2023-09-30T01:59:04;13.20;;;8.20;;
80586;SDS011;69943;20.850;106.728;2023-09-30T02:01:37;10.30;;;7.40;;
80586;SDS011;69943;20.850;106.728;2023-09-30T02:04:10;10.50;;;6.90;;
80586;SDS011;69943;20.850;106.728;2023-09-30T02:06:42;10.20;;;6.90;;
80586;SDS011;69943;20.850;106.728;2023-09-30T02:09:15;11.40;;;7.00;;
80586;SDS011;69943;20.850;106.728;2023-09-30T02:11:48;9.40;;;6.80;;
80586;SDS011;69943;20.850;106.728;2023-09-30T02:14:21;11.90;;;7.00;;
80586;SDS011;69943;20.850;106.728;2023-09-30T02:16:53;12.20;;;6.80;;
80586;SDS011;69943;20.850;106.728;2023-09-30T02:19:26;9.70;;;7.00;;
80586;SDS011;69943;20.850;106.728;2023-09-30T02:21:59;11.50;;;6.80;;
80586;SDS011;69943;20.850;106.728;2023-09-30T02:24:31;10.20;;;6.60;;
80586;SDS011;69943;20.850;106.728;2023-09-30T02:27:04;12.50;;;7.00;;
80586;SDS011;69943;20.850;106.728;2023-09-30T02:29:37;10.50;;;6.50;;
80586;SDS011;69943;20.850;106.728;2023-09-30T02:32:10;8.10;;;6.40;;
80586;SDS011;69943;20.850;106.728;2023-09-30T02:34:45;10.30;;;6.70;;
80586;SDS011;69943;20.850;106.728;2023-09-30T02:37:18;8.70;;;6.10;;
80586;SDS011;69943;20.850;106.728;2023-09-30T02:39:50;9.60;;;6.90;;
80586;SDS011;69943;20.850;106.728;2023-09-30T02:42:23;8.10;;;6.00;;
80586;SDS011;69943;20.850;106.728;2023-09-30T02:44:56;10.80;;;6.30;;
80586;SDS011;69943;20.850;106.728;2023-09-30T02:47:31;9.60;;;6.00;;
80586;SDS011;69943;20.850;106.728;2023-09-30T02:50:05;7.90;;;5.50;;
80586;SDS011;69943;20.850;106.728;2023-09-30T02:52:45;7.40;;;5.30;;
80586;SDS011;69943;20.850;106.728;2023-09-30T02:55:18;9.20;;;5.30;;
80586;SDS011;69943;20.850;106.728;2023-09-30T02:57:50;6.80;;;5.50;;
80586;SDS011;69943;20.850;106.728;2023-09-30T03:00:25;9.30;;;5.70;;
80586;SDS011;69943;20.850;106.728;2023-09-30T03:02:59;7.60;;;5.20;;
80586;SDS011;69943;20.850;106.728;2023-09-30T03:05:36;10.30;;;5.70;;
80586;SDS011;69943;20.850;106.728;2023-09-30T03:08:08;8.60;;;4.90;;
80586;SDS011;69943;20.850;106.728;2023-09-30T03:10:41;8.30;;;5.30;;
80586;SDS011;69943;20.850;106.728;2023-09-30T03:13:14;6.30;;;4.60;;
80586;SDS011;69943;20.850;106.728;2023-09-30T03:15:47;9.00;;;5.70;;
80586;SDS011;69943;20.850;106.728;2023-09-30T03:18:23;7.80;;;5.30;;
80586;SDS011;69943;20.850;106.728;2023-09-30T03:21:02;8.40;;;4.90;;
80586;SDS011;69943;20.850;106.728;2023-09-30T03:23:51;7.10;;;4.80;;
80586;SDS011;69943;20.850;106.728;2023-09-30T03:26:24;5.40;;;4.90;;
80586;SDS011;69943;20.850;106.728;2023-09-30T03:28:59;8.30;;;5.00;;
80586;SDS011;69943;20.850;106.728;2023-09-30T03:31:31;5.20;;;4.60;;
80586;SDS011;69943;20.850;106.728;2023-09-30T03:34:05;6.60;;;4.60;;
80586;SDS011;69943;20.850;106.728;2023-09-30T03:36:37;6.90;;;5.20;;
80586;SDS011;69943;20.850;106.728;2023-09-30T03:39:12;7.70;;;5.10;;
80586;SDS011;69943;20.850;106.728;2023-09-30T03:41:46;7.90;;;4.60;;
80586;SDS011;69943;20.850;106.728;2023-09-30T03:44:19;6.10;;;4.60;;
80586;SDS011;69943;20.850;106.728;2023-09-30T03:46:54;6.80;;;4.70;;
80586;SDS011;69943;20.850;106.728;2023-09-30T03:49:28;5.30;;;4.60;;
80586;SDS011;69943;20.850;106.728;2023-09-30T03:52:00;6.70;;;4.90;;
80586;SDS011;69943;20.850;106.728;2023-09-30T03:54:34;5.10;;;4.60;;
80586;SDS011;69943;20.850;106.728;2023-09-30T03:57:06;6.10;;;4.30;;
80586;SDS011;69943;20.850;106.728;2023-09-30T03:59:39;6.10;;;5.10;;
80586;SDS011;69943;20.850;106.728;2023-09-30T04:02:12;8.50;;;5.30;;
80586;SDS011;69943;20.850;106.728;2023-09-30T04:04:45;7.70;;;5.20;;
80586;SDS011;69943;20.850;106.728;2023-09-30T04:07:18;7.70;;;4.70;;
80586;SDS011;69943;20.850;106.728;2023-09-30T04:09:54;5.70;;;4.60;;
80586;SDS011;69943;20.850;106.728;2023-09-30T04:12:26;5.80;;;4.60;;
80586;SDS011;69943;20.850;106.728;2023-09-30T04:15:00;6.70;;;5.20;;
80586;SDS011;69943;20.850;106.728;2023-09-30T04:17:34;7.50;;;4.70;;
80586;SDS011;69943;20.850;106.728;2023-09-30T04:20:09;5.40;;;4.60;;
80586;SDS011;69943;20.850;106.728;2023-09-30T04:22:47;12.80;;;5.10;;
80586;SDS011;69943;20.850;106.728;2023-09-30T04:25:21;7.50;;;5.30;;
80586;SDS011;69943;20.850;106.728;2023-09-30T04:27:55;6.90;;;4.80;;
80586;SDS011;69943;20.850;106.728;2023-09-30T04:30:28;10.60;;;5.50;;
80586;SDS011;69943;20.850;106.728;2023-09-30T04:33:03;6.90;;;4.90;;
80586;SDS011;69943;20.850;106.728;2023-09-30T04:35:36;8.20;;;5.40;;
80586;SDS011;69943;20.850;106.728;2023-09-30T04:38:08;7.50;;;5.80;;
80586;SDS011;69943;20.850;106.728;2023-09-30T04:40:41;7.40;;;5.40;;
80586;SDS011;69943;20.850;106.728;2023-09-30T04:43:15;6.80;;;5.80;;
80586;SDS011;69943;20.850;106.728;2023-09-30T04:45:48;7.70;;;5.50;;
80586;SDS011;69943;20.850;106.728;2023-09-30T04:48:23;7.20;;;5.40;;
80586;SDS011;69943;20.850;106.728;2023-09-30T04:50:56;6.20;;;4.70;;
80586;SDS011;69943;20.850;106.728;2023-09-30T04:53:29;6.60;;;5.00;;
80586;SDS011;69943;20.850;106.728;2023-09-30T04:56:02;5.70;;;4.80;;
80586;SDS011;69943;20.850;106.728;2023-09-30T04:58:35;5.50;;;4.70;;
80586;SDS011;69943;20.850;106.728;2023-09-30T05:01:07;6.40;;;4.90;;
80586;SDS011;69943;20.850;106.728;2023-09-30T05:03:40;7.20;;;5.00;;
80586;SDS011;69943;20.850;106.728;2023-09-30T05:06:14;7.40;;;5.20;;
80586;SDS011;69943;20.850;106.728;2023-09-30T05:08:47;5.90;;;4.60;;
80586;SDS011;69943;20.850;106.728;2023-09-30T05:11:19;6.10;;;5.10;;
80586;SDS011;69943;20.850;106.728;2023-09-30T05:13:52;6.20;;;4.90;;
80586;SDS011;69943;20.850;106.728;2023-09-30T05:16:25;8.70;;;5.50;;
80586;SDS011;69943;20.850;106.728;2023-09-30T05:18:58;7.50;;;5.00;;
80586;SDS011;69943;20.850;106.728;2023-09-30T05:21:31;7.40;;;5.40;;
80586;SDS011;69943;20.850;106.728;2023-09-30T05:24:04;6.70;;;4.60;;
80586;SDS011;69943;20.850;106.728;2023-09-30T05:26:37;8.40;;;5.70;;
80586;SDS011;69943;20.850;106.728;2023-09-30T05:29:09;6.50;;;4.90;;
80586;SDS011;69943;20.850;106.728;2023-09-30T05:31:42;7.30;;;5.50;;
80586;SDS011;69943;20.850;106.728;2023-09-30T05:34:16;9.50;;;5.00;;
80586;SDS011;69943;20.850;106.728;2023-09-30T05:36:48;7.90;;;5.30;;
80586;SDS011;69943;20.850;106.728;2023-09-30T05:39:22;7.20;;;4.90;;
80586;SDS011;69943;20.850;106.728;2023-09-30T05:41:56;7.40;;;5.30;;
80586;SDS011;69943;20.850;106.728;2023-09-30T05:44:29;7.60;;;5.10;;
80586;SDS011;69943;20.850;106.728;2023-09-30T05:47:03;5.70;;;4.50;;
80586;SDS011;69943;20.850;106.728;2023-09-30T05:49:36;5.40;;;4.40;;
80586;SDS011;69943;20.850;106.728;2023-09-30T05:52:09;7.80;;;5.50;;
80586;SDS011;69943;20.850;106.728;2023-09-30T05:54:41;7.80;;;4.70;;
80586;SDS011;69943;20.850;106.728;2023-09-30T05:57:14;7.20;;;5.10;;
80586;SDS011;69943;20.850;106.728;2023-09-30T05:59:46;5.00;;;4.10;;
80586;SDS011;69943;20.850;106.728;2023-09-30T06:02:20;8.70;;;5.10;;
80586;SDS011;69943;20.850;106.728;2023-09-30T06:04:53;5.80;;;4.70;;
80586;SDS011;69943;20.850;106.728;2023-09-30T06:07:25;7.00;;;5.20;;
80586;SDS011;69943;20.850;106.728;2023-09-30T06:09:58;6.40;;;4.80;;
80586;SDS011;69943;20.850;106.728;2023-09-30T06:15:06;7.40;;;4.20;;
80586;SDS011;69943;20.850;106.728;2023-09-30T06:17:39;7.10;;;4.60;;
80586;SDS011;69943;20.850;106.728;2023-09-30T06:20:12;5.50;;;4.40;;
80586;SDS011;69943;20.850;106.728;2023-09-30T06:22:48;7.20;;;4.90;;
80586;SDS011;69943;20.850;106.728;2023-09-30T06:25:21;7.80;;;4.80;;
80586;SDS011;69943;20.850;106.728;2023-09-30T06:27:58;6.30;;;4.60;;
80586;SDS011;69943;20.850;106.728;2023-09-30T06:30:30;5.60;;;4.80;;
80586;SDS011;69943;20.850;106.728;2023-09-30T06:33:05;5.20;;;4.40;;
80586;SDS011;69943;20.850;106.728;2023-09-30T06:35:40;7.70;;;5.00;;
80586;SDS011;69943;20.850;106.728;2023-09-30T06:38:21;6.00;;;4.60;;
80586;SDS011;69943;20.850;106.728;2023-09-30T06:40:55;6.60;;;4.50;;
80586;SDS011;69943;20.850;106.728;2023-09-30T06:43:27;8.50;;;5.00;;
80586;SDS011;69943;20.850;106.728;2023-09-30T06:46:07;6.50;;;4.30;;
80586;SDS011;69943;20.850;106.728;2023-09-30T06:48:44;6.50;;;4.50;;
80586;SDS011;69943;20.850;106.728;2023-09-30T06:51:16;6.40;;;4.60;;
80586;SDS011;69943;20.850;106.728;2023-09-30T06:53:49;7.40;;;4.90;;
80586;SDS011;69943;20.850;106.728;2023-09-30T06:56:21;7.60;;;4.90;;
80586;SDS011;69943;20.850;106.728;2023-09-30T06:58:54;5.60;;;4.60;;
80586;SDS011;69943;20.850;106.728;2023-09-30T07:01:27;4.90;;;4.00;;
80586;SDS011;69943;20.850;106.728;2023-09-30T07:04:00;7.00;;;4.00;;
80586;SDS011;69943;20.850;106.728;2023-09-30T07:06:33;5.20;;;4.70;;
80586;SDS011;69943;20.850;106.728;2023-09-30T07:09:05;5.60;;;4.30;;
80586;SDS011;69943;20.850;106.728;2023-09-30T07:11:38;7.60;;;4.20;;
80586;SDS011;69943;20.850;106.728;2023-09-30T07:14:11;5.60;;;4.10;;
80586;SDS011;69943;20.850;106.728;2023-09-30T07:16:43;5.30;;;4.30;;
80586;SDS011;69943;20.850;106.728;2023-09-30T07:19:16;4.80;;;3.60;;
80586;SDS011;69943;20.850;106.728;2023-09-30T07:21:49;5.80;;;4.10;;
80586;SDS011;69943;20.850;106.728;2023-09-30T07:24:21;4.90;;;3.50;;
80586;SDS011;69943;20.850;106.728;2023-09-30T07:26:54;5.60;;;3.90;;
80586;SDS011;69943;20.850;106.728;2023-09-30T07:29:27;5.60;;;4.20;;
80586;SDS011;69943;20.850;106.728;2023-09-30T07:31:59;6.50;;;4.40;;
80586;SDS011;69943;20.850;106.728;2023-09-30T07:34:32;5.30;;;4.20;;
80586;SDS011;69943;20.850;106.728;2023-09-30T07:37:05;5.90;;;4.30;;
80586;SDS011;69943;20.850;106.728;2023-09-30T07:39:38;5.40;;;4.30;;
80586;SDS011;69943;20.850;106.728;2023-09-30T07:42:11;7.10;;;4.00;;
80586;SDS011;69943;20.850;106.728;2023-09-30T07:44:44;5.60;;;3.80;;
80586;SDS011;69943;20.850;106.728;2023-09-30T07:47:16;4.50;;;3.40;;
80586;SDS011;69943;20.850;106.728;2023-09-30T07:49:49;6.20;;;3.90;;
80586;SDS011;69943;20.850;106.728;2023-09-30T07:52:21;5.20;;;3.80;;
80586;SDS011;69943;20.850;106.728;2023-09-30T07:54:54;6.30;;;4.10;;
80586;SDS011;69943;20.850;106.728;2023-09-30T07:57:26;4.90;;;3.40;;
80586;SDS011;69943;20.850;106.728;2023-09-30T07:59:59;5.40;;;3.50;;
80586;SDS011;69943;20.850;106.728;2023-09-30T08:02:32;6.30;;;3.70;;
80586;SDS011;69943;20.850;106.728;2023-09-30T08:05:05;5.00;;;4.20;;
80586;SDS011;69943;20.850;106.728;2023-09-30T08:07:38;6.10;;;4.40;;
80586;SDS011;69943;20.850;106.728;2023-09-30T08:10:11;6.00;;;3.90;;
80586;SDS011;69943;20.850;106.728;2023-09-30T08:12:47;5.10;;;3.90;;
80586;SDS011;69943;20.850;106.728;2023-09-30T08:15:21;4.70;;;3.80;;
80586;SDS011;69943;20.850;106.728;2023-09-30T08:17:53;5.20;;;3.70;;
80586;SDS011;69943;20.850;106.728;2023-09-30T08:20:26;5.30;;;3.60;;
80586;SDS011;69943;20.850;106.728;2023-09-30T08:22:59;4.10;;;3.30;;
80586;SDS011;69943;20.850;106.728;2023-09-30T08:25:31;5.50;;;3.80;;
80586;SDS011;69943;20.850;106.728;2023-09-30T08:28:04;5.10;;;3.60;;
80586;SDS011;69943;20.850;106.728;2023-09-30T08:30:37;4.50;;;3.70;;
80586;SDS011;69943;20.850;106.728;2023-09-30T08:33:10;5.30;;;3.60;;
80586;SDS011;69943;20.850;106.728;2023-09-30T08:35:42;6.40;;;3.90;;
80586;SDS011;69943;20.850;106.728;2023-09-30T08:38:15;5.00;;;3.70;;
80586;SDS011;69943;20.850;106.728;2023-09-30T08:40:49;5.30;;;4.20;;
80586;SDS011;69943;20.850;106.728;2023-09-30T08:43:23;4.20;;;3.40;;
80586;SDS011;69943;20.850;106.728;2023-09-30T08:46:02;6.10;;;3.90;;
80586;SDS011;69943;20.850;106.728;2023-09-30T08:48:36;4.90;;;4.10;;
80586;SDS011;69943;20.850;106.728;2023-09-30T08:51:09;6.10;;;3.60;;
80586;SDS011;69943;20.850;106.728;2023-09-30T08:53:41;4.60;;;3.70;;
80586;SDS011;69943;20.850;106.728;2023-09-30T08:56:14;4.50;;;3.80;;
80586;SDS011;69943;20.850;106.728;2023-09-30T08:58:47;4.70;;;3.80;;
80586;SDS011;69943;20.850;106.728;2023-09-30T09:01:21;4.70;;;3.90;;
80586;SDS011;69943;20.850;106.728;2023-09-30T09:03:55;4.50;;;3.60;;
80586;SDS011;69943;20.850;106.728;2023-09-30T09:06:28;4.30;;;3.40;;
80586;SDS011;69943;20.850;106.728;2023-09-30T09:09:14;4.80;;;3.70;;
80586;SDS011;69943;20.850;106.728;2023-09-30T09:11:50;5.00;;;3.90;;
80586;SDS011;69943;20.850;106.728;2023-09-30T09:14:43;6.40;;;3.80;;
80586;SDS011;69943;20.850;106.728;2023-09-30T09:17:16;6.00;;;3.90;;
80586;SDS011;69943;20.850;106.728;2023-09-30T09:20:00;4.60;;;4.00;;
80586;SDS011;69943;20.850;106.728;2023-09-30T09:22:39;4.90;;;3.70;;
80586;SDS011;69943;20.850;106.728;2023-09-30T09:25:12;4.90;;;4.10;;
80586;SDS011;69943;20.850;106.728;2023-09-30T09:27:45;5.30;;;4.20;;
80586;SDS011;69943;20.850;106.728;2023-09-30T09:32:57;5.50;;;4.50;;
80586;SDS011;69943;20.850;106.728;2023-09-30T09:35:32;4.30;;;3.80;;
80586;SDS011;69943;20.850;106.728;2023-09-30T09:38:05;5.30;;;4.20;;
80586;SDS011;69943;20.850;106.728;2023-09-30T09:40:39;5.20;;;4.30;;
80586;SDS011;69943;20.850;106.728;2023-09-30T09:43:11;7.20;;;4.40;;
80586;SDS011;69943;20.850;106.728;2023-09-30T09:45:44;5.80;;;4.30;;
80586;SDS011;69943;20.850;106.728;2023-09-30T09:48:18;5.10;;;3.70;;
80586;SDS011;69943;20.850;106.728;2023-09-30T09:50:51;7.00;;;4.50;;
80586;SDS011;69943;20.850;106.728;2023-09-30T09:53:23;5.90;;;4.20;;
80586;SDS011;69943;20.850;106.728;2023-09-30T09:55:57;8.20;;;4.50;;
80586;SDS011;69943;20.850;106.728;2023-09-30T09:58:32;8.10;;;4.80;;
80586;SDS011;69943;20.850;106.728;2023-09-30T10:01:07;6.00;;;4.00;;
80586;SDS011;69943;20.850;106.728;2023-09-30T10:03:41;6.40;;;4.60;;
80586;SDS011;69943;20.850;106.728;2023-09-30T10:06:14;5.80;;;4.00;;
80586;SDS011;69943;20.850;106.728;2023-09-30T10:08:48;8.10;;;4.50;;
80586;SDS011;69943;20.850;106.728;2023-09-30T10:11:22;7.90;;;4.70;;
80586;SDS011;69943;20.850;106.728;2023-09-30T10:13:58;4.40;;;3.90;;
80586;SDS011;69943;20.850;106.728;2023-09-30T10:16:46;5.80;;;4.50;;
80586;SDS011;69943;20.850;106.728;2023-09-30T10:19:20;7.40;;;4.10;;
80586;SDS011;69943;20.850;106.728;2023-09-30T10:24:49;5.40;;;4.60;;
80586;SDS011;69943;20.850;106.728;2023-09-30T10:41:04;5.40;;;4.30;;
80586;SDS011;69943;20.850;106.728;2023-09-30T10:43:39;5.90;;;3.90;;
80586;SDS011;69943;20.850;106.728;2023-09-30T10:49:10;7.30;;;4.00;;
80586;SDS011;69943;20.850;106.728;2023-09-30T10:51:50;4.50;;;3.90;;
80586;SDS011;69943;20.850;106.728;2023-09-30T10:54:31;6.50;;;4.20;;
80586;SDS011;69943;20.850;106.728;2023-09-30T10:57:04;5.10;;;4.50;;
80586;SDS011;69943;20.850;106.728;2023-09-30T10:59:37;5.30;;;4.20;;
80586;SDS011;69943;20.850;106.728;2023-09-30T11:02:19;6.40;;;4.30;;
80586;SDS011;69943;20.850;106.728;2023-09-30T11:04:51;4.90;;;4.30;;
80586;SDS011;69943;20.850;106.728;2023-09-30T11:07:24;6.90;;;5.30;;
80586;SDS011;69943;20.850;106.728;2023-09-30T11:09:57;6.10;;;4.80;;
80586;SDS011;69943;20.850;106.728;2023-09-30T11:12:33;5.20;;;4.50;;
80586;SDS011;69943;20.850;106.728;2023-09-30T11:15:06;6.00;;;4.50;;
80586;SDS011;69943;20.850;106.728;2023-09-30T11:17:40;6.80;;;4.20;;
80586;SDS011;69943;20.850;106.728;2023-09-30T11:20:13;5.10;;;4.60;;
80586;SDS011;69943;20.850;106.728;2023-09-30T11:22:47;5.70;;;4.20;;
80586;SDS011;69943;20.850;106.728;2023-09-30T11:25:20;8.50;;;4.60;;
80586;SDS011;69943;20.850;106.728;2023-09-30T11:27:54;5.60;;;4.60;;
80586;SDS011;69943;20.850;106.728;2023-09-30T11:30:53;5.40;;;4.60;;
80586;SDS011;69943;20.850;106.728;2023-09-30T11:33:29;5.30;;;4.40;;
80586;SDS011;69943;20.850;106.728;2023-09-30T11:36:05;8.60;;;4.90;;
80586;SDS011;69943;20.850;106.728;2023-09-30T11:38:43;8.00;;;4.80;;
80586;SDS011;69943;20.850;106.728;2023-09-30T11:41:20;6.00;;;4.90;;
80586;SDS011;69943;20.850;106.728;2023-09-30T11:44:03;5.90;;;5.10;;
80586;SDS011;69943;20.850;106.728;2023-09-30T11:46:57;7.20;;;5.00;;
80586;SDS011;69943;20.850;106.728;2023-09-30T11:49:32;6.80;;;5.10;;
80586;SDS011;69943;20.850;106.728;2023-09-30T11:52:12;4.80;;;4.30;;
80586;SDS011;69943;20.850;106.728;2023-09-30T11:54:46;7.80;;;4.90;;
80586;SDS011;69943;20.850;106.728;2023-09-30T11:57:18;7.40;;;4.70;;
80586;SDS011;69943;20.850;106.728;2023-09-30T11:59:51;5.80;;;4.80;;
80586;SDS011;69943;20.850;106.728;2023-09-30T12:02:24;5.10;;;4.60;;
80586;SDS011;69943;20.850;106.728;2023-09-30T12:04:56;6.60;;;4.60;;
80586;SDS011;69943;20.850;106.728;2023-09-30T12:07:29;6.50;;;5.40;;
80586;SDS011;69943;20.850;106.728;2023-09-30T12:10:01;6.90;;;5.70;;
80586;SDS011;69943;20.850;106.728;2023-09-30T12:12:34;7.60;;;5.50;;
80586;SDS011;69943;20.850;106.728;2023-09-30T12:15:07;6.40;;;4.90;;
80586;SDS011;69943;20.850;106.728;2023-09-30T12:17:43;6.70;;;5.30;;
80586;SDS011;69943;20.850;106.728;2023-09-30T12:20:15;6.70;;;5.30;;
80586;SDS011;69943;20.850;106.728;2023-09-30T12:22:49;6.40;;;4.90;;
80586;SDS011;69943;20.850;106.728;2023-09-30T12:25:23;8.20;;;5.30;;
80586;SDS011;69943;20.850;106.728;2023-09-30T12:27:56;7.80;;;4.70;;
80586;SDS011;69943;20.850;106.728;2023-09-30T12:30:29;7.10;;;5.30;;
80586;SDS011;69943;20.850;106.728;2023-09-30T12:33:03;5.50;;;4.70;;
80586;SDS011;69943;20.850;106.728;2023-09-30T12:35:36;7.00;;;5.90;;
80586;SDS011;69943;20.850;106.728;2023-09-30T12:38:08;8.90;;;5.60;;
80586;SDS011;69943;20.850;106.728;2023-09-30T12:40:42;7.80;;;6.10;;
80586;SDS011;69943;20.850;106.728;2023-09-30T12:43:14;8.90;;;5.90;;
80586;SDS011;69943;20.850;106.728;2023-09-30T12:45:47;6.30;;;5.00;;
80586;SDS011;69943;20.850;106.728;2023-09-30T12:48:21;6.90;;;6.10;;
80586;SDS011;69943;20.850;106.728;2023-09-30T12:50:53;6.50;;;5.70;;
80586;SDS011;69943;20.850;106.728;2023-09-30T12:53:26;6.20;;;5.20;;
80586;SDS011;69943;20.850;106.728;2023-09-30T12:55:59;6.90;;;4.80;;
80586;SDS011;69943;20.850;106.728;2023-09-30T12:58:32;8.00;;;5.90;;
80586;SDS011;69943;20.850;106.728;2023-09-30T13:01:04;7.80;;;6.20;;
80586;SDS011;69943;20.850;106.728;2023-09-30T13:03:39;7.30;;;5.90;;
80586;SDS011;69943;20.850;106.728;2023-09-30T13:06:12;8.60;;;6.60;;
80586;SDS011;69943;20.850;106.728;2023-09-30T13:08:46;6.60;;;5.70;;
80586;SDS011;69943;20.850;106.728;2023-09-30T13:11:20;6.40;;;5.70;;
80586;SDS011;69943;20.850;106.728;2023-09-30T13:13:52;8.50;;;5.80;;
80586;SDS011;69943;20.850;106.728;2023-09-30T13:16:25;8.30;;;5.90;;
80586;SDS011;69943;20.850;106.728;2023-09-30T13:18:58;6.40;;;5.50;;
80586;SDS011;69943;20.850;106.728;2023-09-30T13:21:33;6.20;;;5.60;;
80586;SDS011;69943;20.850;106.728;2023-09-30T13:24:06;8.30;;;5.70;;
80586;SDS011;69943;20.850;106.728;2023-09-30T13:26:41;7.20;;;5.70;;
80586;SDS011;69943;20.850;106.728;2023-09-30T13:29:14;9.40;;;6.30;;
80586;SDS011;69943;20.850;106.728;2023-09-30T13:31:49;10.30;;;6.30;;
80586;SDS011;69943;20.850;106.728;2023-09-30T13:34:22;8.40;;;6.50;;
80586;SDS011;69943;20.850;106.728;2023-09-30T13:36:54;7.70;;;6.60;;
80586;SDS011;69943;20.850;106.728;2023-09-30T13:39:28;7.70;;;6.30;;
80586;SDS011;69943;20.850;106.728;2023-09-30T13:42:00;8.30;;;6.00;;
80586;SDS011;69943;20.850;106.728;2023-09-30T13:44:33;10.00;;;5.70;;
80586;SDS011;69943;20.850;106.728;2023-09-30T13:47:07;7.30;;;6.30;;
80586;SDS011;69943;20.850;106.728;2023-09-30T13:49:41;7.40;;;5.90;;
80586;SDS011;69943;20.850;106.728;2023-09-30T13:52:13;7.80;;;5.90;;
80586;SDS011;69943;20.850;106.728;2023-09-30T13:54:46;9.10;;;6.50;;
80586;SDS011;69943;20.850;106.728;2023-09-30T13:57:18;7.90;;;6.00;;
80586;SDS011;69943;20.850;106.728;2023-09-30T13:59:51;7.70;;;6.10;;
80586;SDS011;69943;20.850;106.728;2023-09-30T14:02:23;7.20;;;6.50;;
80586;SDS011;69943;20.850;106.728;2023-09-30T14:04:56;10.00;;;6.90;;
80586;SDS011;69943;20.850;106.728;2023-09-30T14:07:29;7.30;;;6.10;;
80586;SDS011;69943;20.850;106.728;2023-09-30T14:10:02;6.90;;;6.10;;
80586;SDS011;69943;20.850;106.728;2023-09-30T14:12:37;6.30;;;5.30;;
80586;SDS011;69943;20.850;106.728;2023-09-30T14:15:11;8.70;;;6.20;;
80586;SDS011;69943;20.850;106.728;2023-09-30T14:17:44;9.80;;;6.20;;
80586;SDS011;69943;20.850;106.728;2023-09-30T14:20:16;6.60;;;5.80;;
80586;SDS011;69943;20.850;106.728;2023-09-30T14:22:49;9.70;;;6.90;;
80586;SDS011;69943;20.850;106.728;2023-09-30T14:25:22;9.80;;;6.70;;
80586;SDS011;69943;20.850;106.728;2023-09-30T14:27:55;6.60;;;5.90;;
80586;SDS011;69943;20.850;106.728;2023-09-30T14:30:31;8.10;;;6.90;;
80586;SDS011;69943;20.850;106.728;2023-09-30T14:33:04;7.90;;;6.50;;
80586;SDS011;69943;20.850;106.728;2023-09-30T14:35:37;7.50;;;6.30;;
80586;SDS011;69943;20.850;106.728;2023-09-30T14:38:09;6.70;;;5.60;;
80586;SDS011;69943;20.850;106.728;2023-09-30T14:40:43;7.70;;;6.90;;
80586;SDS011;69943;20.850;106.728;2023-09-30T14:43:15;8.10;;;6.10;;
80586;SDS011;69943;20.850;106.728;2023-09-30T14:45:48;7.70;;;5.80;;
80586;SDS011;69943;20.850;106.728;2023-09-30T14:48:21;6.60;;;5.90;;
80586;SDS011;69943;20.850;106.728;2023-09-30T14:50:53;7.30;;;6.50;;
80586;SDS011;69943;20.850;106.728;2023-09-30T14:53:26;8.60;;;7.20;;
80586;SDS011;69943;20.850;106.728;2023-09-30T14:55:59;7.50;;;6.40;;
80586;SDS011;69943;20.850;106.728;2023-09-30T14:58:32;8.20;;;7.20;;
80586;SDS011;69943;20.850;106.728;2023-09-30T15:01:08;7.80;;;6.40;;
80586;SDS011;69943;20.850;106.728;2023-09-30T15:03:41;7.60;;;5.90;;
80586;SDS011;69943;20.850;106.728;2023-09-30T15:06:15;8.70;;;7.30;;
80586;SDS011;69943;20.850;106.728;2023-09-30T15:08:47;6.60;;;5.50;;
80586;SDS011;69943;20.850;106.728;2023-09-30T15:11:20;7.20;;;5.60;;
80586;SDS011;69943;20.850;106.728;2023-09-30T15:13:54;7.80;;;6.30;;
80586;SDS011;69943;20.850;106.728;2023-09-30T15:16:27;7.10;;;6.10;;
80586;SDS011;69943;20.850;106.728;2023-09-30T15:19:00;7.50;;;6.10;;
80586;SDS011;69943;20.850;106.728;2023-09-30T15:21:33;7.70;;;6.80;;